Time;durP1;ratioP1;P1;durP2;ratioP2;P2;SDS_P1;SDS_P2;PMS_P1;PMS_P2;Temp;Humidity;BMP_temperature;BMP_pressure;BME280_temperature;BME280_humidity;BME280_pressure;Samples;Min_cycle;Max_cycle;Signal;HPM_P1;HPM_P2
2021/01/14 00:01:19;;;;;;;42.13;20.85;;;;;;;2.93;65.88;98769.75;5074284;28;20045;-77
2021/01/14 00:03:46;;;;;;;46.92;23.10;;;;;;;2.74;66.03;98767.47;5076259;28;20051;-74
2021/01/14 00:06:13;;;;;;;35.08;20.80;;;;;;;2.58;66.58;98767.66;5074001;28;20036;-76
2021/01/14 00:08:40;;;;;;;47.03;24.02;;;;;;;2.52;66.61;98771.50;5076488;28;20089;-75
2021/01/14 00:11:11;;;;;;;42.53;24.00;;;;;;;2.48;66.57;98768.25;5077153;28;20047;-74
2021/01/14 00:13:39;;;;;;;46.03;21.48;;;;;;;2.41;66.54;98759.13;5077967;28;20051;-74
2021/01/14 00:16:06;;;;;;;36.00;20.58;;;;;;;2.29;66.48;98758.13;5073979;28;20060;-75
2021/01/14 00:18:33;;;;;;;46.42;22.48;;;;;;;2.15;66.97;98767.72;5076427;28;20086;-75
2021/01/14 00:21:00;;;;;;;44.05;22.83;;;;;;;2.03;67.06;98770.13;5077128;28;20053;-75
2021/01/14 00:23:26;;;;;;;52.38;23.50;;;;;;;1.91;67.42;98770.91;5086710;28;20096;-74
2021/01/14 00:25:53;;;;;;;52.58;27.05;;;;;;;1.83;67.26;98768.75;5088823;28;20148;-76
2021/01/14 00:28:22;;;;;;;48.78;21.35;;;;;;;1.76;67.48;98777.03;5089668;28;20289;-75
2021/01/14 00:30:48;;;;;;;50.63;23.48;;;;;;;1.72;67.35;98774.59;5089490;28;20063;-75
2021/01/14 00:33:15;;;;;;;54.50;21.63;;;;;;;1.74;67.72;98778.88;5088937;28;20033;-75
2021/01/14 00:35:41;;;;;;;50.67;23.50;;;;;;;1.80;67.38;98773.28;5088988;28;20036;-75
2021/01/14 00:38:07;;;;;;;50.58;20.88;;;;;;;1.87;67.29;98774.59;5070874;28;20096;-75
2021/01/14 00:40:35;;;;;;;49.22;22.45;;;;;;;1.91;67.37;98770.91;5088472;28;20090;-75
2021/01/14 00:43:03;;;;;;;39.70;22.52;;;;;;;1.95;67.21;98771.56;5091242;28;20028;-75
2021/01/14 00:45:31;;;;;;;46.95;24.42;;;;;;;2.01;67.15;98772.00;5090996;28;20092;-75
2021/01/14 00:47:59;;;;;;;41.70;22.23;;;;;;;2.08;67.07;98777.69;5090587;28;20049;-76
2021/01/14 00:50:26;;;;;;;43.78;21.75;;;;;;;2.12;66.88;98767.91;5090175;28;20499;-75
2021/01/14 00:52:53;;;;;;;49.60;23.92;;;;;;;2.14;66.89;98772.06;5082290;28;20075;-75
2021/01/14 00:55:20;;;;;;;43.33;20.15;;;;;;;2.17;66.84;98774.50;5073208;28;20078;-75
2021/01/14 00:57:46;;;;;;;49.67;21.70;;;;;;;2.20;66.68;98776.09;5071282;28;20055;-75
2021/01/14 01:00:15;;;;;;;40.17;20.45;;;;;;;2.15;66.73;98772.94;5072231;28;20060;-75
2021/01/14 01:02:43;;;;;;;46.22;19.92;;;;;;;2.03;66.90;98775.34;5071689;28;20054;-75
2021/01/14 01:05:11;;;;;;;42.40;21.60;;;;;;;2.01;66.69;98779.81;5070860;28;20050;-75
2021/01/14 01:07:38;;;;;;;50.53;20.00;;;;;;;2.06;66.56;98782.97;5071433;28;20044;-76
2021/01/14 01:10:05;;;;;;;47.92;22.70;;;;;;;2.14;66.26;98782.50;5068614;28;20072;-74
2021/01/14 01:12:32;;;;;;;45.83;19.52;;;;;;;2.22;66.29;98787.25;5069009;28;20499;-75
2021/01/14 01:14:59;;;;;;;42.88;19.80;;;;;;;2.27;65.98;98787.81;5068443;28;20067;-75
2021/01/14 01:17:32;;;;;;;46.38;21.20;;;;;;;2.26;66.46;98781.75;5069912;28;20098;-74
2021/01/14 01:19:59;;;;;;;54.85;21.80;;;;;;;2.30;66.10;98777.19;5068451;28;20056;-74
2021/01/14 01:22:26;;;;;;;49.33;22.02;;;;;;;2.30;66.19;98777.19;5069048;28;20476;-74
2021/01/14 01:24:52;;;;;;;48.83;23.25;;;;;;;2.26;66.53;98770.50;5071190;28;20051;-74
2021/01/14 01:27:19;;;;;;;49.03;21.38;;;;;;;2.23;66.38;98775.88;5068986;28;20044;-75
2021/01/14 01:29:45;;;;;;;52.42;23.10;;;;;;;2.22;66.51;98776.84;5068024;28;20095;-75
2021/01/14 01:32:12;;;;;;;53.42;24.02;;;;;;;2.23;66.33;98770.69;5066945;28;20052;-75
2021/01/14 01:34:38;;;;;;;46.10;23.42;;;;;;;2.21;66.35;98772.53;5068379;28;20427;-75
2021/01/14 01:37:06;;;;;;;52.28;23.42;;;;;;;2.18;66.57;98768.38;5067893;28;20052;-75
2021/01/14 01:39:32;;;;;;;53.08;23.55;;;;;;;2.14;66.58;98766.03;5067248;28;20479;-76
2021/01/14 01:41:59;;;;;;;50.58;22.17;;;;;;;2.15;66.44;98762.53;5066776;28;20480;-76
2021/01/14 01:44:25;;;;;;;40.58;22.80;;;;;;;2.20;66.45;98763.06;5066988;28;20102;-74
2021/01/14 01:46:56;;;;;;;56.42;26.92;;;;;;;2.20;66.51;98760.47;5067445;28;20557;-76
2021/01/14 01:49:23;;;;;;;61.13;27.15;;;;;;;2.23;66.51;98757.66;5067362;28;20059;-75
2021/01/14 01:51:53;;;;;;;60.80;26.90;;;;;;;2.24;66.84;98767.16;5049275;28;20056;-74
2021/01/14 01:54:21;;;;;;;59.78;29.25;;;;;;;2.32;66.76;98764.88;5066880;28;20063;-75
2021/01/14 01:56:49;;;;;;;62.65;29.23;;;;;;;2.39;66.79;98766.19;5066621;28;20593;-75
2021/01/14 01:59:18;;;;;;;67.82;30.30;;;;;;;2.45;66.66;98765.81;5066286;28;20051;-74
2021/01/14 02:01:57;;;;;;;65.15;32.15;;;;;;;2.52;66.50;98773.22;5066134;28;20566;-75
2021/01/14 02:04:23;;;;;;;65.57;28.67;;;;;;;2.53;66.54;98772.31;5066714;28;20052;-74
2021/01/14 02:06:58;;;;;;;62.67;30.92;;;;;;;2.56;66.55;98765.13;5066935;28;20052;-75
2021/01/14 02:09:26;;;;;;;67.53;31.42;;;;;;;2.61;66.68;98770.03;5065521;28;20051;-76
2021/01/14 02:12:00;;;;;;;63.20;31.10;;;;;;;2.63;66.65;98770.81;5066285;28;20127;-76
2021/01/14 02:14:30;;;;;;;65.15;28.80;;;;;;;2.68;66.79;98769.56;5067609;28;20055;-75
2021/01/14 02:16:58;;;;;;;70.13;29.73;;;;;;;2.73;66.68;98766.66;5067384;28;20435;-77
2021/01/14 02:19:33;;;;;;;55.92;27.98;;;;;;;2.76;66.48;98771.69;5067628;28;20300;-78
2021/01/14 02:22:04;;;;;;;61.35;28.77;;;;;;;2.74;66.82;98770.94;5067289;28;20059;-76
2021/01/14 02:24:39;;;;;;;66.80;28.45;;;;;;;2.76;66.90;98770.84;5072047;28;20051;-76
2021/01/14 02:27:08;;;;;;;55.85;28.00;;;;;;;2.81;66.60;98776.59;5071493;28;20087;-75
2021/01/14 02:29:36;;;;;;;58.25;29.52;;;;;;;2.86;66.76;98775.38;5071560;28;20056;-75
2021/01/14 02:32:03;;;;;;;59.40;29.48;;;;;;;2.89;66.87;98789.16;5071012;28;20093;-75
2021/01/14 02:34:30;;;;;;;58.65;27.52;;;;;;;2.86;66.63;98791.03;5069902;28;20049;-76
2021/01/14 02:36:56;;;;;;;66.28;33.40;;;;;;;2.89;66.82;98787.38;5056933;28;20055;-79
2021/01/14 02:39:23;;;;;;;64.88;33.20;;;;;;;2.89;66.64;98789.97;5076746;28;20048;-75
2021/01/14 02:41:49;;;;;;;66.15;27.90;;;;;;;2.89;66.48;98786.53;5076923;28;20052;-76
2021/01/14 02:44:16;;;;;;;61.65;29.33;;;;;;;2.85;66.99;98788.50;5076791;28;20222;-76
2021/01/14 02:46:44;;;;;;;47.97;25.05;;;;;;;2.86;66.93;98792.78;5071117;28;20108;-76
2021/01/14 02:49:11;;;;;;;51.03;29.45;;;;;;;2.81;66.94;98795.69;5070853;28;20135;-74
2021/01/14 02:51:42;;;;;;;55.60;26.92;;;;;;;2.79;66.94;98794.97;5070536;28;20496;-77
2021/01/14 02:54:11;;;;;;;63.85;26.88;;;;;;;2.74;67.08;98804.84;5071422;28;20048;-75
2021/01/14 02:56:38;;;;;;;61.33;30.33;;;;;;;2.70;66.98;98805.94;5072370;28;20049;-76
2021/01/14 02:59:06;;;;;;;62.38;29.75;;;;;;;2.65;67.20;98801.03;5072674;28;20055;-74
2021/01/14 03:01:34;;;;;;;67.43;32.28;;;;;;;2.61;67.34;98811.75;5073306;28;20095;-75
2021/01/14 03:04:00;;;;;;;77.35;37.33;;;;;;;2.53;67.27;98804.41;5072592;28;20197;-75
2021/01/14 03:06:27;;;;;;;72.07;36.05;;;;;;;2.49;67.40;98798.56;5074833;28;20048;-74
2021/01/14 03:08:54;;;;;;;78.50;38.10;;;;;;;2.53;67.25;98798.38;5056990;28;20555;-75
2021/01/14 03:11:28;;;;;;;70.03;32.03;;;;;;;2.55;67.36;98802.53;5073454;28;20439;-77
2021/01/14 03:13:54;;;;;;;75.65;33.60;;;;;;;2.47;67.40;98805.63;5073715;28;20075;-76
2021/01/14 03:16:21;;;;;;;73.38;35.75;;;;;;;2.37;67.28;98798.50;5074308;28;20041;-73
2021/01/14 03:18:49;;;;;;;64.32;32.45;;;;;;;2.31;67.61;98804.09;5072133;28;20044;-76
2021/01/14 03:21:19;;;;;;;68.03;28.45;;;;;;;2.29;67.73;98802.41;5071943;28;20213;-75
2021/01/14 03:23:46;;;;;;;60.80;28.33;;;;;;;2.25;67.60;98800.94;5073781;28;20052;-75
2021/01/14 03:26:13;;;;;;;61.55;28.75;;;;;;;2.24;67.34;98799.25;5070801;28;20045;-75
2021/01/14 03:28:39;;;;;;;59.92;27.55;;;;;;;2.22;67.44;98802.88;5071843;28;20487;-76
2021/01/14 03:31:06;;;;;;;66.45;32.15;;;;;;;2.21;67.33;98804.63;5070519;28;20040;-74
2021/01/14 03:33:32;;;;;;;66.30;29.70;;;;;;;2.17;67.50;98807.53;5069388;28;20112;-78
2021/01/14 03:36:00;;;;;;;67.28;28.52;;;;;;;2.16;67.65;98811.06;5069582;28;20059;-75
2021/01/14 03:38:26;;;;;;;60.53;28.33;;;;;;;2.14;67.57;98811.16;5069456;28;20501;-76
2021/01/14 03:40:53;;;;;;;55.75;25.98;;;;;;;2.12;67.83;98812.19;5051742;28;20396;-76
2021/01/14 03:43:20;;;;;;;59.33;25.08;;;;;;;2.09;67.44;98811.44;5069247;28;20066;-75
2021/01/14 03:45:47;;;;;;;59.65;25.05;;;;;;;2.07;67.69;98818.53;5068990;28;20488;-76
2021/01/14 03:48:13;;;;;;;57.42;25.85;;;;;;;2.03;67.75;98814.41;5068308;28;20045;-75
2021/01/14 03:50:41;;;;;;;56.53;26.40;;;;;;;2.01;67.58;98812.84;5068172;28;20547;-75
2021/01/14 03:53:08;;;;;;;64.35;27.10;;;;;;;1.96;67.44;98810.50;5068631;28;20059;-76
2021/01/14 03:55:35;;;;;;;60.05;25.23;;;;;;;1.91;67.62;98813.38;5068641;28;20052;-76
2021/01/14 03:58:02;;;;;;;62.60;25.50;;;;;;;1.90;67.58;98821.28;5067541;28;20053;-75
2021/01/14 04:00:31;;;;;;;54.25;27.25;;;;;;;1.87;67.60;98816.25;5016652;28;20090;-75
2021/01/14 04:02:58;;;;;;;60.88;27.10;;;;;;;1.84;67.75;98819.06;5069339;28;20139;-76
2021/01/14 04:05:24;;;;;;;56.78;26.00;;;;;;;1.79;67.80;98816.72;5071167;28;20045;-75
2021/01/14 04:07:51;;;;;;;53.75;25.98;;;;;;;1.72;67.76;98816.25;5071158;28;20668;-75
2021/01/14 04:10:18;;;;;;;57.88;25.92;;;;;;;1.67;67.53;98818.28;5056263;28;20180;-75
2021/01/14 04:12:45;;;;;;;61.33;28.77;;;;;;;1.63;67.65;98815.97;5071665;28;20055;-75
2021/01/14 04:15:12;;;;;;;64.63;28.35;;;;;;;1.58;67.64;98821.41;5068568;28;20045;-74
2021/01/14 04:17:39;;;;;;;66.18;28.58;;;;;;;1.47;68.11;98819.44;5069012;28;20044;-76
2021/01/14 04:20:07;;;;;;;66.18;29.88;;;;;;;1.39;68.28;98820.81;5066151;28;20058;-77
2021/01/14 04:22:34;;;;;;;101.13;42.40;;;;;;;1.31;68.13;98824.72;5068263;28;20056;-76
2021/01/14 04:25:03;;;;;;;111.80;47.28;;;;;;;1.29;68.19;98830.91;5068101;28;20055;-76
2021/01/14 04:27:30;;;;;;;86.43;36.72;;;;;;;1.28;68.43;98834.47;5070981;28;20048;-76
2021/01/14 04:33:22;;;;;;;54.40;25.42;;;;;;;1.34;67.98;98842.72;5053786;28;20085;-76
2021/01/14 04:35:52;;;;;;;53.22;23.35;;;;;;;1.36;68.00;98849.63;5012647;28;20727;-75
2021/01/14 04:38:20;;;;;;;53.08;24.48;;;;;;;1.39;67.80;98855.50;5006735;28;20045;-77
2021/01/14 04:40:54;;;;;;;68.60;28.00;;;;;;;1.48;67.68;98856.72;5005531;28;20096;-78
2021/01/14 04:43:24;;;;;;;58.25;25.10;;;;;;;1.53;67.71;98860.75;5004378;28;20050;-73
2021/01/14 04:45:55;;;;;;;68.53;25.05;;;;;;;1.61;67.82;98862.06;5004650;28;20129;-77
2021/01/14 04:48:23;;;;;;;58.67;26.80;;;;;;;1.68;67.57;98864.22;4989657;28;20053;-75
2021/01/14 04:50:50;;;;;;;67.13;29.10;;;;;;;1.75;67.57;98863.84;5003092;28;20049;-76
2021/01/14 04:53:20;;;;;;;80.40;33.85;;;;;;;1.83;67.68;98874.66;5005628;28;20042;-74
2021/01/14 04:55:51;;;;;;;99.00;37.40;;;;;;;1.87;67.48;98871.78;5005002;28;20056;-76
2021/01/14 04:58:19;;;;;;;165.70;73.07;;;;;;;1.97;67.52;98879.06;5004787;28;20046;-75
2021/01/14 05:00:51;;;;;;;120.60;62.25;;;;;;;2.01;67.29;98876.16;5006469;28;20058;-74
2021/01/14 05:03:25;;;;;;;88.03;47.17;;;;;;;2.02;67.53;98879.63;5016454;28;20053;-75
2021/01/14 05:05:52;;;;;;;82.40;38.05;;;;;;;2.03;67.49;98884.72;5047547;28;20101;-76
2021/01/14 05:08:29;;;;;;;79.13;36.50;;;;;;;2.10;67.36;98880.81;5067772;28;20062;-76
2021/01/14 05:10:57;;;;;;;67.20;29.75;;;;;;;2.12;67.25;98887.72;5067322;28;20131;-75
2021/01/14 05:13:24;;;;;;;76.88;32.90;;;;;;;2.15;67.45;98887.53;5068635;28;20076;-76
2021/01/14 05:15:51;;;;;;;76.22;32.42;;;;;;;2.18;67.36;98890.81;5067977;28;20048;-75
2021/01/14 05:18:18;;;;;;;76.72;33.13;;;;;;;2.20;67.43;98895.94;5067856;28;20067;-76
2021/01/14 05:20:44;;;;;;;82.60;33.13;;;;;;;2.23;67.37;98895.72;5067888;28;20510;-75
2021/01/14 05:23:12;;;;;;;65.78;28.80;;;;;;;2.26;67.71;98900.75;5067824;28;20044;-75
2021/01/14 05:25:51;;;;;;;70.35;28.55;;;;;;;2.29;67.36;98905.78;5069066;28;20052;-75
2021/01/14 05:28:19;;;;;;;68.50;30.45;;;;;;;2.26;67.34;98913.78;5068660;28;20045;-76
2021/01/14 05:30:46;;;;;;;79.40;31.27;;;;;;;2.23;67.87;98900.94;5068497;28;20049;-75
2021/01/14 05:33:15;;;;;;;66.55;27.38;;;;;;;2.20;67.62;98915.00;5068693;28;20744;-74
2021/01/14 05:35:48;;;;;;;65.95;27.27;;;;;;;2.13;67.66;98916.28;5068867;28;20079;-75
2021/01/14 05:38:29;;;;;;;67.18;29.67;;;;;;;2.04;67.92;98925.47;5068992;28;20459;-76
2021/01/14 05:41:19;;;;;;;65.18;28.80;;;;;;;1.95;68.07;98930.38;5068738;28;20059;-76
2021/01/14 05:43:51;;;;;;;61.58;24.27;;;;;;;1.93;68.02;98933.09;5068225;28;20053;-75
2021/01/14 05:46:19;;;;;;;65.13;26.40;;;;;;;1.93;68.26;98933.09;5069786;28;20048;-75
2021/01/14 05:48:48;;;;;;;72.40;30.05;;;;;;;1.92;68.20;98934.81;5071091;28;20063;-75
2021/01/14 05:51:23;;;;;;;75.20;31.17;;;;;;;1.98;67.92;98930.19;5050502;28;20063;-75
2021/01/14 05:53:58;;;;;;;70.43;30.80;;;;;;;2.01;67.86;98930.84;5069236;28;20079;-76
2021/01/14 05:56:32;;;;;;;68.45;29.67;;;;;;;2.01;67.67;98938.66;5069162;28;20057;-77
2021/01/14 05:58:59;;;;;;;77.00;33.33;;;;;;;1.97;68.01;98934.56;5071755;28;20098;-76
2021/01/14 06:01:30;;;;;;;91.50;37.45;;;;;;;1.95;67.92;98939.03;5073525;28;20106;-76
2021/01/14 06:04:14;;;;;;;76.65;32.45;;;;;;;1.87;68.13;98947.28;5072129;28;20048;-76
2021/01/14 06:06:43;;;;;;;74.35;34.53;;;;;;;1.84;67.99;98949.25;5072971;28;20056;-76
2021/01/14 06:09:11;;;;;;;80.20;31.73;;;;;;;1.75;68.13;98944.53;5073128;28;20520;-76
2021/01/14 06:11:38;;;;;;;78.70;32.05;;;;;;;1.70;68.33;98955.22;5072709;28;20427;-74
2021/01/14 06:14:05;;;;;;;71.22;30.63;;;;;;;1.64;68.46;98956.41;5073547;28;20044;-79
2021/01/14 06:16:48;;;;;;;62.72;30.30;;;;;;;1.56;68.29;98956.00;5075385;28;20052;-75
2021/01/14 06:19:15;;;;;;;80.22;32.70;;;;;;;1.51;68.42;98960.63;5075728;28;20056;-79
2021/01/14 06:21:46;;;;;;;94.80;41.60;;;;;;;1.50;68.61;98972.78;5072929;28;20447;-76
2021/01/14 06:24:24;;;;;;;79.55;38.08;;;;;;;1.55;68.44;98969.94;5054864;28;20057;-74
2021/01/14 06:26:51;;;;;;;131.32;64.55;;;;;;;1.63;68.30;98980.75;5074479;28;20080;-73
2021/01/14 06:29:19;;;;;;;120.07;62.15;;;;;;;1.65;68.75;98983.28;5072575;28;20511;-74
2021/01/14 06:31:46;;;;;;;125.78;65.75;;;;;;;1.62;69.03;98991.25;5073549;28;20056;-72
2021/01/14 06:34:16;;;;;;;117.05;58.03;;;;;;;1.68;69.24;98994.34;5075112;28;20055;-70
2021/01/14 06:36:46;;;;;;;124.18;68.65;;;;;;;1.65;69.40;99004.09;5074735;28;20048;-73
2021/01/14 06:39:15;;;;;;;114.65;57.50;;;;;;;1.69;69.14;99003.00;5074507;28;20052;-78
2021/01/14 06:41:44;;;;;;;102.20;48.72;;;;;;;1.73;69.15;99012.31;5073309;28;20045;-73
2021/01/14 06:44:12;;;;;;;101.90;55.28;;;;;;;1.76;69.29;99017.34;5072700;28;20420;-71
2021/01/14 06:46:41;;;;;;;101.45;51.50;;;;;;;1.83;68.97;99018.66;5072883;28;20040;-74
2021/01/14 06:49:12;;;;;;;101.00;56.45;;;;;;;1.84;68.79;99019.53;5073696;28;20052;-72
2021/01/14 06:52:15;;;;;;;108.70;59.45;;;;;;;1.83;69.28;99031.69;5072354;28;20044;-75
2021/01/14 06:54:45;;;;;;;94.97;58.58;;;;;;;1.84;68.79;99040.34;5075304;28;20135;-78
2021/01/14 06:57:15;;;;;;;105.75;55.20;;;;;;;1.83;69.18;99047.31;5075025;28;20115;-77
2021/01/14 06:59:43;;;;;;;101.63;57.20;;;;;;;1.80;69.04;99044.03;5073938;28;20128;-77
2021/01/14 07:02:51;;;;;;;119.55;66.40;;;;;;;1.77;69.15;99047.66;5073151;28;20369;-77
2021/01/14 07:05:27;;;;;;;112.28;59.88;;;;;;;1.75;68.94;99057.31;5073415;28;20182;-76
2021/01/14 07:08:21;;;;;;;120.20;61.13;;;;;;;1.75;69.19;99057.31;5072325;28;20060;-76
2021/01/14 07:11:00;;;;;;;123.03;62.60;;;;;;;1.79;69.06;99063.19;5071157;28;20044;-75
2021/01/14 07:13:31;;;;;;;124.35;66.00;;;;;;;1.76;69.10;99063.38;5072363;28;20488;-77
2021/01/14 07:15:59;;;;;;;131.52;64.38;;;;;;;1.85;69.11;99065.44;5071834;28;20048;-76
2021/01/14 07:18:29;;;;;;;103.20;56.45;;;;;;;1.92;68.83;99066.78;5072388;28;20072;-76
2021/01/14 07:21:01;;;;;;;106.40;54.95;;;;;;;2.00;68.66;99079.38;5071726;28;20501;-75
2021/01/14 07:23:33;;;;;;;92.13;47.05;;;;;;;2.06;68.47;99076.44;5072094;28;20051;-75
2021/01/14 07:26:01;;;;;;;111.05;56.42;;;;;;;2.13;68.11;99080.38;5057408;28;20076;-77
2021/01/14 07:28:42;;;;;;;109.43;53.03;;;;;;;2.16;68.18;99087.16;5079392;28;20044;-76
2021/01/14 07:31:22;;;;;;;132.02;77.63;;;;;;;2.15;67.95;99095.94;5080257;28;20123;-77
2021/01/14 07:33:49;;;;;;;115.60;63.92;;;;;;;2.09;68.06;99091.91;5053529;28;20056;-76
2021/01/14 07:36:27;;;;;;;132.30;72.38;;;;;;;2.10;68.41;99101.38;5075278;28;20622;-77
2021/01/14 07:38:58;;;;;;;113.38;53.75;;;;;;;2.18;68.04;99096.59;5076868;28;20055;-75
2021/01/14 07:41:24;;;;;;;127.50;74.18;;;;;;;2.17;67.95;99107.09;5075639;28;20535;-75
2021/01/14 07:43:51;;;;;;;153.50;93.05;;;;;;;2.08;68.08;99106.66;5074742;28;20135;-77
2021/01/14 07:46:22;;;;;;;142.30;79.40;;;;;;;2.08;68.27;99106.66;5076302;28;20051;-76
2021/01/14 07:48:50;;;;;;;112.28;57.85;;;;;;;2.05;68.03;99109.47;5079039;28;20052;-76
2021/01/14 07:51:18;;;;;;;117.82;67.60;;;;;;;2.10;68.20;99104.81;5080609;28;20053;-77
2021/01/14 07:54:06;;;;;;;116.10;60.72;;;;;;;2.14;68.29;99112.47;5082748;28;20041;-75
2021/01/14 07:56:44;;;;;;;110.45;56.20;;;;;;;2.14;68.04;99118.50;5078558;28;20124;-77
2021/01/14 07:59:11;;;;;;;98.95;59.85;;;;;;;2.04;68.30;99120.81;5061245;28;20048;-74
2021/01/14 08:02:02;;;;;;;90.90;57.63;;;;;;;1.97;68.54;99124.66;5082463;28;20123;-75
2021/01/14 08:04:28;;;;;;;92.13;49.50;;;;;;;2.00;68.03;99129.72;5082476;28;20192;-76
2021/01/14 08:06:55;;;;;;;95.88;49.78;;;;;;;2.07;67.94;99131.06;5080785;28;20244;-74
2021/01/14 08:09:24;;;;;;;89.90;47.00;;;;;;;2.12;67.89;99148.19;5080169;28;20052;-75
2021/01/14 08:11:57;;;;;;;96.32;51.88;;;;;;;2.13;67.99;99144.66;5077719;28;20472;-77
2021/01/14 08:14:37;;;;;;;82.90;50.70;;;;;;;2.12;67.90;99142.97;5076175;28;20112;-77
2021/01/14 08:17:21;;;;;;;79.03;40.70;;;;;;;2.24;67.54;99157.94;5077045;28;20109;-75
2021/01/14 08:19:48;;;;;;;65.22;36.63;;;;;;;2.24;67.25;99160.53;5059991;28;20047;-76
2021/01/14 08:22:15;;;;;;;77.30;41.28;;;;;;;2.31;67.16;99156.66;5075450;28;20481;-76
2021/01/14 08:24:47;;;;;;;78.95;46.40;;;;;;;2.25;66.95;99159.59;5077017;28;20059;-77
2021/01/14 08:27:15;;;;;;;75.60;42.42;;;;;;;2.31;66.83;99158.44;5076247;28;20544;-76
2021/01/14 08:29:46;;;;;;;73.07;39.08;;;;;;;2.30;66.73;99152.38;5062072;28;20064;-75
2021/01/14 08:32:40;;;;;;;68.68;35.55;;;;;;;2.37;66.95;99164.13;5042232;28;20048;-76
2021/01/14 08:35:09;;;;;;;66.55;33.00;;;;;;;2.45;66.35;99164.53;5077154;28;20464;-77
2021/01/14 08:37:39;;;;;;;70.65;44.72;;;;;;;2.53;66.21;99163.28;5076816;28;20067;-77
2021/01/14 08:40:11;;;;;;;78.57;42.80;;;;;;;2.52;66.17;99172.88;5084595;28;20042;-76
2021/01/14 08:42:39;;;;;;;79.45;43.47;;;;;;;2.50;65.87;99166.88;5079325;28;20103;-77
2021/01/14 08:45:09;;;;;;;68.57;41.95;;;;;;;2.59;65.63;99176.81;5079633;28;20779;-76
2021/01/14 08:47:58;;;;;;;77.53;41.78;;;;;;;2.64;65.79;99173.91;5080493;28;20577;-77
2021/01/14 08:50:47;;;;;;;91.43;51.78;;;;;;;2.59;65.19;99184.63;5078247;28;20074;-75
2021/01/14 08:53:29;;;;;;;77.57;45.85;;;;;;;2.58;65.31;99200.34;5079680;28;20045;-76
2021/01/14 08:55:58;;;;;;;77.13;43.05;;;;;;;2.45;65.21;99208.84;5079249;28;20044;-77
2021/01/14 08:58:38;;;;;;;79.50;45.05;;;;;;;2.39;65.24;99205.72;5080151;28;20040;-76
2021/01/14 09:01:09;;;;;;;74.15;46.95;;;;;;;2.36;65.34;99217.19;5063332;28;20082;-76
2021/01/14 09:03:36;;;;;;;79.47;42.53;;;;;;;2.35;65.26;99227.69;5078532;28;20481;-76
2021/01/14 09:06:04;;;;;;;71.53;42.85;;;;;;;2.28;65.02;99232.38;5080627;28;20063;-76
2021/01/14 09:08:30;;;;;;;69.80;40.15;;;;;;;2.22;65.73;99232.72;5090433;28;20099;-77
2021/01/14 09:10:59;;;;;;;76.80;42.83;;;;;;;2.23;65.58;99226.56;5089883;28;20039;-75
2021/01/14 09:13:27;;;;;;;76.75;44.63;;;;;;;2.25;65.77;99236.00;5090008;28;20107;-75
2021/01/14 09:15:55;;;;;;;74.78;44.92;;;;;;;2.23;65.71;99240.47;5090413;28;20233;-76
2021/01/14 09:18:31;;;;;;;71.05;41.05;;;;;;;2.16;65.13;99241.72;5089276;28;20032;-76
2021/01/14 09:20:59;;;;;;;80.97;49.45;;;;;;;2.05;65.12;99257.06;5087878;28;20130;-75
2021/01/14 09:23:33;;;;;;;87.47;48.53;;;;;;;1.98;65.35;99264.38;5087358;28;20032;-75
2021/01/14 09:26:01;;;;;;;90.35;49.75;;;;;;;1.92;65.00;99273.34;5091407;28;20032;-78
2021/01/14 09:28:29;;;;;;;89.38;50.38;;;;;;;1.82;65.73;99277.38;5092273;28;20081;-76
2021/01/14 09:30:57;;;;;;;83.78;42.72;;;;;;;1.82;65.73;99277.38;5091138;28;20142;-76
2021/01/14 09:33:26;;;;;;;81.40;48.25;;;;;;;1.88;65.50;99278.81;5092492;28;20039;-76
2021/01/14 09:36:10;;;;;;;86.30;47.88;;;;;;;1.93;65.54;99284.63;5093724;28;20078;-76
2021/01/14 09:38:47;;;;;;;88.13;40.22;;;;;;;2.03;65.26;99284.97;5090240;28;20045;-75
2021/01/14 09:41:25;;;;;;;86.18;46.38;;;;;;;2.02;65.18;99289.34;5089955;28;20112;-77
2021/01/14 09:43:54;;;;;;;84.75;47.42;;;;;;;2.06;65.17;99296.06;5088477;28;20045;-78
2021/01/14 09:46:23;;;;;;;92.15;53.28;;;;;;;2.00;65.55;99288.59;5089265;28;20041;-75
2021/01/14 09:48:50;;;;;;;88.18;49.47;;;;;;;1.99;65.32;99289.50;5083872;28;20039;-74
2021/01/14 09:51:17;;;;;;;89.70;52.10;;;;;;;2.02;65.67;99296.31;5072123;28;20028;-75
2021/01/14 09:53:46;;;;;;;97.40;62.20;;;;;;;2.00;65.45;99306.81;5068728;28;20120;-76
2021/01/14 09:56:18;;;;;;;96.05;50.65;;;;;;;1.98;65.83;99303.44;5056476;28;20044;-75
2021/01/14 09:58:48;;;;;;;92.88;56.15;;;;;;;1.93;65.94;99313.25;5054350;28;20048;-74
2021/01/14 10:01:21;;;;;;;96.10;54.55;;;;;;;1.90;66.39;99310.81;5060737;28;20052;-75
2021/01/14 10:03:54;;;;;;;95.28;52.50;;;;;;;1.96;66.05;99310.47;5051917;28;20127;-76
2021/01/14 10:06:23;;;;;;;97.38;47.88;;;;;;;2.15;65.77;99304.31;5034971;28;20493;-78
2021/01/14 10:08:50;;;;;;;98.97;52.22;;;;;;;2.13;65.90;99308.78;5056772;28;20049;-78
2021/01/14 10:11:21;;;;;;;101.97;55.97;;;;;;;2.22;65.60;99313.50;5034128;28;20082;-77
2021/01/14 10:13:51;;;;;;;92.05;51.35;;;;;;;2.10;65.83;99307.16;5040761;28;20045;-79
2021/01/14 10:16:22;;;;;;;85.95;50.13;;;;;;;2.05;66.29;99314.38;5039351;28;20824;-74
2021/01/14 10:18:49;;;;;;;93.97;49.33;;;;;;;2.02;66.18;99314.56;5052765;28;20040;-72
2021/01/14 10:21:23;;;;;;;99.20;55.70;;;;;;;2.03;66.45;99324.03;5051244;28;20127;-73
2021/01/14 10:23:50;;;;;;;83.30;51.10;;;;;;;2.13;66.14;99319.19;5048497;28;20624;-75
2021/01/14 10:26:30;;;;;;;91.97;52.25;;;;;;;2.04;66.33;99323.13;5053803;28;20041;-76
2021/01/14 10:28:56;;;;;;;68.43;36.60;;;;;;;2.14;65.74;99319.09;5057371;28;20053;-76
2021/01/14 10:31:36;;;;;;;89.32;49.72;;;;;;;2.27;65.75;99320.13;5059519;28;20037;-75
2021/01/14 10:34:04;;;;;;;74.28;42.92;;;;;;;2.30;65.36;99324.34;5056436;28;20049;-76
2021/01/14 10:36:48;;;;;;;75.57;37.55;;;;;;;2.38;65.49;99327.38;5058725;28;20055;-76
2021/01/14 10:39:17;;;;;;;75.25;45.70;;;;;;;2.37;65.27;99330.91;5059636;28;20285;-72
2021/01/14 10:41:45;;;;;;;79.95;45.50;;;;;;;2.44;64.78;99328.81;5056962;28;20088;-74
2021/01/14 10:44:12;;;;;;;67.90;37.72;;;;;;;2.46;64.49;99332.19;5066371;28;20048;-76
2021/01/14 10:46:41;;;;;;;56.58;34.53;;;;;;;2.46;63.94;99335.63;5067767;28;20473;-74
2021/01/14 10:49:10;;;;;;;52.33;36.15;;;;;;;2.47;63.38;99333.88;5066654;28;20072;-75
2021/01/14 10:51:37;;;;;;;41.55;27.80;;;;;;;2.50;62.52;99344.09;5066770;28;20044;-77
2021/01/14 10:54:04;;;;;;;48.90;29.58;;;;;;;2.52;62.62;99346.63;5050722;28;20076;-75
2021/01/14 10:56:30;;;;;;;39.40;26.08;;;;;;;2.52;62.06;99339.69;5068487;28;20047;-76
2021/01/14 10:59:01;;;;;;;40.47;23.98;;;;;;;2.59;62.20;99348.00;5067306;28;20041;-75
2021/01/14 11:01:37;;;;;;;35.90;24.80;;;;;;;2.61;62.10;99340.91;5064730;28;20045;-78
2021/01/14 11:04:09;;;;;;;38.25;23.83;;;;;;;2.63;61.99;99341.72;5034792;28;20041;-73
2021/01/14 11:06:37;;;;;;;37.08;22.42;;;;;;;2.59;61.24;99345.38;5050911;28;20053;-79
2021/01/14 11:09:06;;;;;;;37.42;25.52;;;;;;;2.52;61.73;99349.25;5049702;28;20506;-77
2021/01/14 11:11:35;;;;;;;36.92;20.73;;;;;;;2.59;60.27;99338.44;5051119;28;20076;-76
2021/01/14 11:14:03;;;;;;;35.50;23.23;;;;;;;2.59;60.85;99342.78;5052167;28;20056;-78
2021/01/14 11:16:29;;;;;;;34.78;21.15;;;;;;;2.60;61.27;99344.47;5050167;28;20049;-79
2021/01/14 11:18:58;;;;;;;33.55;22.27;;;;;;;2.62;60.82;99350.44;5051506;28;20053;-79
2021/01/14 11:21:30;;;;;;;28.10;17.73;;;;;;;2.67;60.14;99348.44;5061301;28;20040;-79
2021/01/14 11:23:58;;;;;;;30.30;14.80;;;;;;;2.68;59.74;99348.34;5048555;28;20144;-82
2021/01/14 11:26:28;;;;;;;24.20;16.30;;;;;;;2.67;60.20;99348.44;5055249;28;20106;-79
2021/01/14 11:28:56;;;;;;;28.10;17.95;;;;;;;2.73;60.51;99353.28;5064756;28;20052;-80
2021/01/14 11:31:29;;;;;;;31.58;19.98;;;;;;;2.81;60.55;99350.25;5060174;28;20052;-78
2021/01/14 11:33:59;;;;;;;34.60;19.67;;;;;;;2.78;60.57;99346.06;5063180;28;20416;-83
2021/01/14 11:36:26;;;;;;;35.13;21.08;;;;;;;2.97;60.42;99352.88;5063865;28;20048;-79
2021/01/14 11:38:54;;;;;;;39.85;26.70;;;;;;;2.99;60.19;99351.00;5063767;28;20064;-79
2021/01/14 11:41:25;;;;;;;33.38;20.70;;;;;;;2.98;59.56;99351.97;5055165;28;20048;-83